Time;durP1;ratioP1;P1;durP2;ratioP2;P2;SDS_P1;SDS_P2;PMS_P1;PMS_P2;Temp;Humidity;BMP_temperature;BMP_pressure;BME280_temperature;BME280_humidity;BME280_pressure;Samples;Min_cycle;Max_cycle;Signal;HPM_P1;HPM_P2
2022/12/26 00:01:30;;;;;;;18.17;10.00;;;6.90;99.90;;;;;;5012857;28;20226;-55
2022/12/26 00:03:57;;;;;;;17.60;9.70;;;6.90;99.90;;;;;;5022073;28;20232;-51
2022/12/26 00:06:28;;;;;;;15.50;9.50;;;6.90;99.90;;;;;;5032125;28;20539;-60
2022/12/26 00:08:55;;;;;;;13.47;9.53;;;6.90;99.90;;;;;;5040630;28;20192;-47
2022/12/26 00:11:22;;;;;;;16.13;9.80;;;6.90;99.90;;;;;;5023335;28;20569;-56
2022/12/26 00:13:53;;;;;;;20.10;10.23;;;6.90;99.90;;;;;;5039809;28;20215;-44
2022/12/26 00:16:21;;;;;;;18.20;9.50;;;6.90;99.90;;;;;;5021959;28;20577;-56
2022/12/26 00:18:49;;;;;;;23.10;9.67;;;6.90;99.90;;;;;;5026139;28;20641;-43
2022/12/26 00:21:18;;;;;;;19.70;9.67;;;6.90;99.90;;;;;;5028297;28;20203;-54
2022/12/26 00:23:47;;;;;;;21.03;8.67;;;6.90;99.90;;;;;;5038086;28;20215;-48
2022/12/26 00:26:18;;;;;;;21.03;9.20;;;6.90;99.90;;;;;;5029013;28;20203;-53
2022/12/26 00:28:46;;;;;;;20.03;8.90;;;6.90;99.90;;;;;;5042332;28;20195;-50
2022/12/26 00:31:16;;;;;;;13.23;9.20;;;6.90;99.90;;;;;;5046469;28;20601;-45
2022/12/26 00:33:43;;;;;;;17.10;8.47;;;7.00;99.90;;;;;;5025649;28;20627;-44
2022/12/26 00:36:14;;;;;;;23.97;9.43;;;6.90;99.90;;;;;;5032180;28;20290;-48
2022/12/26 00:38:43;;;;;;;14.23;9.13;;;7.00;99.90;;;;;;5040360;28;20219;-45
2022/12/26 00:41:14;;;;;;;20.27;8.93;;;7.00;99.90;;;;;;5046082;28;20226;-44
2022/12/26 00:43:42;;;;;;;22.67;8.70;;;7.00;99.90;;;;;;5042599;28;20207;-52
2022/12/26 00:46:10;;;;;;;42.33;10.40;;;6.90;99.90;;;;;;5037805;28;20203;-45
2022/12/26 00:48:38;;;;;;;35.90;9.83;;;7.00;99.90;;;;;;5012859;28;20192;-48
2022/12/26 00:51:06;;;;;;;32.70;10.53;;;7.00;99.90;;;;;;5033352;28;20196;-43
2022/12/26 00:53:34;;;;;;;42.00;11.67;;;7.00;99.90;;;;;;5032094;28;20215;-58
2022/12/26 00:56:02;;;;;;;35.87;10.23;;;7.00;99.90;;;;;;5034443;28;20812;-43
2022/12/26 00:58:31;;;;;;;51.83;12.27;;;7.00;99.90;;;;;;5039041;28;20208;-56
2022/12/26 01:01:07;;;;;;;57.40;12.10;;;7.00;99.90;;;;;;5033008;28;20200;-47
2022/12/26 01:03:35;;;;;;;29.00;10.80;;;6.90;99.90;;;;;;5026082;28;20718;-56
2022/12/26 01:06:03;;;;;;;34.87;10.83;;;6.90;99.90;;;;;;5033239;28;20207;-43
2022/12/26 01:08:31;;;;;;;51.93;11.97;;;7.00;99.90;;;;;;5038267;28;20312;-49
2022/12/26 01:11:04;;;;;;;49.90;11.50;;;7.00;99.90;;;;;;5025197;28;20219;-43
2022/12/26 01:13:34;;;;;;;45.93;11.67;;;7.00;99.90;;;;;;5020623;28;20247;-47
2022/12/26 01:16:03;;;;;;;49.83;12.33;;;7.00;99.90;;;;;;5029540;28;20223;-49
2022/12/26 01:18:30;;;;;;;44.73;12.73;;;7.00;99.90;;;;;;5022370;28;20197;-44
2022/12/26 01:20:59;;;;;;;35.33;12.30;;;7.00;99.90;;;;;;5021716;28;20235;-44
2022/12/26 01:23:27;;;;;;;31.97;11.67;;;7.00;99.90;;;;;;5027519;28;20246;-56
2022/12/26 01:25:55;;;;;;;37.87;10.90;;;7.00;99.90;;;;;;5035946;28;20211;-49
2022/12/26 01:28:23;;;;;;;37.53;12.07;;;7.00;99.90;;;;;;5038635;28;20269;-59
2022/12/26 01:30:52;;;;;;;35.73;11.37;;;7.00;99.90;;;;;;5040970;28;20290;-42
2022/12/26 01:33:22;;;;;;;45.17;10.63;;;7.00;99.90;;;;;;5039273;28;20296;-57
2022/12/26 01:35:53;;;;;;;39.23;10.47;;;7.00;99.90;;;;;;5035779;28;20216;-43
2022/12/26 01:38:21;;;;;;;30.53;11.37;;;7.00;99.90;;;;;;5054739;28;20207;-55
2022/12/26 01:41:18;;;;;;;19.40;10.03;;;7.00;99.90;;;;;;5045504;28;20561;-45
2022/12/26 01:43:55;;;;;;;17.90;9.70;;;7.10;99.90;;;;;;5045255;28;20216;-46
2022/12/26 01:46:30;;;;;;;38.97;9.87;;;7.00;99.90;;;;;;5029108;28;20198;-57
2022/12/26 01:49:01;;;;;;;25.53;9.13;;;7.10;99.90;;;;;;5033183;28;20747;-44
2022/12/26 01:51:34;;;;;;;32.00;8.33;;;7.10;99.90;;;;;;5018579;28;20203;-43
2022/12/26 01:54:05;;;;;;;28.17;8.73;;;7.10;99.90;;;;;;5036335;28;20219;-49
2022/12/26 01:56:38;;;;;;;23.07;8.90;;;7.10;99.90;;;;;;5030442;28;20188;-46
2022/12/26 01:59:09;;;;;;;22.00;8.37;;;7.10;99.90;;;;;;5045417;28;20222;-45
2022/12/26 02:01:42;;;;;;;20.90;8.57;;;7.10;99.90;;;;;;5038531;28;20195;-43
2022/12/26 02:06:59;;;;;;;22.23;7.60;;;7.20;99.90;;;;;;5016478;28;20560;-43
2022/12/26 02:09:28;;;;;;;21.47;7.87;;;7.20;99.90;;;;;;5020679;28;20196;-56
2022/12/26 02:12:02;;;;;;;16.77;7.10;;;7.20;99.90;;;;;;5025733;28;20678;-43
2022/12/26 02:14:31;;;;;;;25.47;8.23;;;7.20;99.90;;;;;;5021089;28;20765;-43
2022/12/26 02:17:02;;;;;;;27.23;8.20;;;7.20;99.90;;;;;;5035118;28;20200;-45
2022/12/26 02:19:41;;;;;;;23.70;8.40;;;7.20;99.90;;;;;;5026316;28;20921;-43
2022/12/26 02:22:35;;;;;;;32.73;7.83;;;7.20;99.90;;;;;;5011316;28;20574;-57
2022/12/26 02:25:29;;;;;;;21.70;6.43;;;7.30;99.90;;;;;;5026131;28;20259;-43
2022/12/26 02:28:26;;;;;;;18.90;6.77;;;7.20;99.90;;;;;;5023986;28;20203;-46
2022/12/26 02:31:01;;;;;;;24.17;7.03;;;7.20;99.90;;;;;;5025784;28;20204;-43
2022/12/26 02:34:00;;;;;;;18.33;6.20;;;7.20;99.90;;;;;;5039171;28;20293;-44
2022/12/26 02:36:57;;;;;;;44.77;6.97;;;7.20;99.90;;;;;;5025813;28;20224;-56
2022/12/26 02:39:36;;;;;;;43.63;6.97;;;7.20;99.90;;;;;;5033801;28;20223;-56
2022/12/26 02:42:14;;;;;;;35.50;6.33;;;7.20;99.90;;;;;;5026922;28;20259;-43
2022/12/26 02:47:39;;;;;;;41.57;7.83;;;7.20;99.90;;;;;;5030219;28;20295;-42
2022/12/26 03:13:11;;;;;;;35.33;7.63;;;7.20;99.90;;;;;;5023500;28;20254;-45
2022/12/26 03:18:28;;;;;;;28.10;7.20;;;7.30;99.90;;;;;;5029851;28;20200;-59
2022/12/26 03:20:58;;;;;;;28.10;8.10;;;7.30;99.90;;;;;;5027783;28;20249;-52
2022/12/26 03:23:25;;;;;;;37.80;8.03;;;7.30;99.90;;;;;;5022926;28;20188;-47
2022/12/26 03:28:41;;;;;;;22.93;6.60;;;7.30;99.90;;;;;;5026489;28;20202;-46
2022/12/26 03:31:09;;;;;;;26.37;7.33;;;7.30;99.90;;;;;;5021020;28;20250;-58
2022/12/26 03:36:35;;;;;;;37.67;8.30;;;7.30;99.90;;;;;;5019659;28;20420;-48
2022/12/26 03:39:09;;;;;;;47.37;9.57;;;7.30;99.90;;;;;;5041491;28;20393;-57
2022/12/26 04:44:07;;;;;;;30.43;9.60;;;7.50;99.90;;;;;;4960126;28;20217;-54
2022/12/26 04:46:38;;;;;;;40.53;9.97;;;7.50;99.90;;;;;;4993908;28;20193;-43
2022/12/26 04:51:53;;;;;;;43.83;10.27;;;7.50;99.90;;;;;;5010430;28;20222;-50
2022/12/26 04:54:20;;;;;;;42.03;10.73;;;7.50;99.90;;;;;;5023194;28;20220;-42
2022/12/26 04:56:47;;;;;;;36.90;10.10;;;7.50;99.90;;;;;;5037244;28;20199;-42
2022/12/26 04:59:16;;;;;;;49.47;11.00;;;7.50;99.90;;;;;;5014436;28;20223;-56
2022/12/26 05:10:03;;;;;;;23.60;10.27;;;7.60;99.90;;;;;;5041533;28;20190;-52
2022/12/26 05:12:30;;;;;;;26.00;10.43;;;7.60;99.90;;;;;;5025913;28;20215;-42
2022/12/26 05:14:58;;;;;;;28.20;11.40;;;7.60;99.90;;;;;;5011098;28;20225;-47
2022/12/26 05:28:42;;;;;;;19.70;9.97;;;7.60;99.90;;;;;;5038341;28;20195;-58
2022/12/26 05:31:13;;;;;;;23.67;11.10;;;7.70;99.90;;;;;;5022984;28;20238;-46
2022/12/26 05:36:28;;;;;;;21.97;10.10;;;7.70;99.90;;;;;;5025633;28;20199;-44
2022/12/26 05:38:55;;;;;;;20.53;10.37;;;7.70;99.90;;;;;;5017617;28;20206;-51
2022/12/26 05:41:23;;;;;;;18.27;9.10;;;7.70;99.90;;;;;;5024929;28;20220;-42
2022/12/26 05:43:49;;;;;;;21.00;9.50;;;7.70;99.90;;;;;;5022021;28;20277;-56
2022/12/26 05:46:18;;;;;;;21.47;10.03;;;7.70;99.90;;;;;;5014654;28;20208;-42
2022/12/26 05:48:45;;;;;;;18.93;9.93;;;7.70;99.90;;;;;;5026088;28;20207;-55
2022/12/26 05:51:12;;;;;;;17.07;9.80;;;7.70;99.90;;;;;;5034612;28;20187;-48
2022/12/26 05:53:39;;;;;;;17.60;9.33;;;7.80;99.90;;;;;;5042895;28;20269;-55
2022/12/26 05:56:09;;;;;;;19.50;10.07;;;7.70;99.90;;;;;;5027844;28;20436;-44
2022/12/26 05:58:36;;;;;;;18.70;9.60;;;7.70;99.90;;;;;;5029398;28;20200;-59
2022/12/26 06:01:08;;;;;;;19.93;10.23;;;7.70;99.90;;;;;;5011985;28;20227;-47
2022/12/26 06:03:36;;;;;;;16.57;9.80;;;7.80;99.90;;;;;;5025014;28;20223;-50
2022/12/26 06:06:03;;;;;;;21.93;10.60;;;7.80;99.90;;;;;;5025546;28;20196;-45
2022/12/26 06:08:29;;;;;;;21.30;11.07;;;7.80;99.90;;;;;;5022524;28;20200;-48
2022/12/26 06:10:57;;;;;;;18.93;10.10;;;7.80;99.90;;;;;;5021227;28;20864;-43
2022/12/26 06:13:24;;;;;;;15.40;9.40;;;7.80;99.90;;;;;;5021243;28;20764;-44
2022/12/26 06:15:51;;;;;;;16.87;10.00;;;7.80;99.90;;;;;;5026128;28;20207;-55
2022/12/26 06:18:18;;;;;;;17.57;11.03;;;7.80;99.90;;;;;;5020547;28;20207;-45
2022/12/26 06:20:46;;;;;;;19.50;11.17;;;7.80;99.90;;;;;;5022028;28;20223;-56
2022/12/26 06:23:13;;;;;;;21.33;11.77;;;7.90;99.90;;;;;;5023747;28;20210;-44
2022/12/26 06:25:40;;;;;;;19.00;11.10;;;7.80;99.90;;;;;;5024944;28;20200;-56
2022/12/26 06:28:07;;;;;;;21.17;11.40;;;7.80;99.90;;;;;;5031135;28;20232;-44
2022/12/26 06:30:34;;;;;;;21.00;11.83;;;7.80;99.90;;;;;;5026697;28;20290;-51
2022/12/26 06:33:01;;;;;;;20.80;11.37;;;7.80;99.90;;;;;;5011198;28;20203;-46
2022/12/26 06:35:28;;;;;;;22.03;12.20;;;7.90;99.90;;;;;;5031607;28;20218;-51
2022/12/26 06:37:57;;;;;;;24.67;13.07;;;7.90;99.90;;;;;;5020624;28;20203;-45
2022/12/26 06:40:24;;;;;;;25.10;12.77;;;7.90;99.90;;;;;;5024588;28;20226;-44
2022/12/26 06:42:51;;;;;;;27.43;12.67;;;7.90;99.90;;;;;;5020602;28;20658;-56
2022/12/26 06:45:18;;;;;;;24.27;12.07;;;7.90;99.90;;;;;;5025557;28;20219;-42
2022/12/26 06:47:45;;;;;;;25.60;12.70;;;7.90;99.90;;;;;;5030266;28;20215;-58
2022/12/26 06:50:13;;;;;;;31.03;13.00;;;7.90;99.90;;;;;;5021474;28;20242;-48
2022/12/26 06:52:40;;;;;;;28.20;13.50;;;7.90;99.90;;;;;;5022187;28;20207;-55
2022/12/26 06:55:08;;;;;;;28.03;13.50;;;7.90;99.90;;;;;;5022475;28;20219;-44
2022/12/26 06:57:36;;;;;;;28.70;13.27;;;8.00;99.90;;;;;;5031202;28;20223;-54
2022/12/26 07:00:04;;;;;;;25.23;12.60;;;7.90;99.90;;;;;;5036266;28;20199;-45
2022/12/26 07:02:30;;;;;;;31.37;13.90;;;7.90;99.90;;;;;;5042847;28;20196;-45
2022/12/26 07:04:57;;;;;;;32.13;13.67;;;8.00;99.90;;;;;;5010504;28;20500;-50
2022/12/26 07:07:24;;;;;;;29.43;13.87;;;8.00;99.90;;;;;;5023898;28;20230;-43
2022/12/26 07:09:51;;;;;;;28.57;13.87;;;8.00;99.90;;;;;;5039488;28;20678;-58
2022/12/26 07:12:20;;;;;;;28.97;13.93;;;8.00;99.90;;;;;;5042951;28;20203;-45
2022/12/26 07:14:48;;;;;;;28.97;13.40;;;8.00;99.90;;;;;;5040117;28;20268;-56
2022/12/26 07:17:15;;;;;;;31.30;13.97;;;8.00;99.90;;;;;;5045965;28;20211;-55
2022/12/26 07:19:41;;;;;;;24.77;12.77;;;8.10;99.90;;;;;;5022201;28;20286;-47
2022/12/26 07:22:08;;;;;;;25.97;12.60;;;8.10;99.90;;;;;;5018416;28;20710;-54
2022/12/26 07:24:35;;;;;;;26.43;12.07;;;8.10;99.90;;;;;;5023093;28;20789;-43
2022/12/26 07:27:02;;;;;;;29.20;12.73;;;8.10;99.90;;;;;;5030768;28;20196;-56
2022/12/26 07:29:30;;;;;;;28.97;12.43;;;8.10;99.90;;;;;;5034285;28;20188;-49
2022/12/26 07:31:57;;;;;;;23.33;12.70;;;8.10;99.90;;;;;;5023059;28;20196;-51
2022/12/26 07:34:46;;;;;;;26.57;13.00;;;8.20;99.90;;;;;;5010927;28;20323;-43
2022/12/26 07:37:13;;;;;;;23.27;12.67;;;8.20;99.90;;;;;;5019907;28;20566;-57
2022/12/26 07:39:40;;;;;;;26.77;12.90;;;8.10;99.90;;;;;;5023830;28;20219;-44
2022/12/26 07:42:07;;;;;;;23.40;11.67;;;8.20;99.90;;;;;;5020632;28;20219;-57
2022/12/26 07:44:37;;;;;;;25.60;13.17;;;8.20;99.90;;;;;;5022253;28;20208;-45
2022/12/26 07:47:04;;;;;;;26.70;12.53;;;8.20;99.90;;;;;;5035709;28;20198;-58
2022/12/26 07:49:31;;;;;;;22.97;12.87;;;8.20;99.90;;;;;;5011406;28;20211;-44
2022/12/26 07:51:58;;;;;;;24.40;13.20;;;8.20;99.90;;;;;;5021459;28;20202;-56
2022/12/26 07:54:27;;;;;;;27.70;14.33;;;8.20;99.90;;;;;;5018241;28;22039;-48
2022/12/26 07:56:54;;;;;;;25.63;13.33;;;8.30;99.90;;;;;;5032662;28;20207;-60
2022/12/26 07:59:21;;;;;;;25.83;14.47;;;8.30;99.90;;;;;;5018743;28;20203;-44
2022/12/26 08:01:48;;;;;;;25.33;15.20;;;8.20;99.90;;;;;;5026987;28;20224;-45
2022/12/26 08:04:16;;;;;;;28.13;15.60;;;8.30;99.90;;;;;;5021459;28;20298;-55
2022/12/26 08:06:42;;;;;;;26.73;15.13;;;8.30;99.90;;;;;;5022409;28;20899;-43
2022/12/26 08:09:14;;;;;;;26.07;14.33;;;8.30;99.90;;;;;;5031485;28;20217;-53
2022/12/26 08:11:41;;;;;;;28.73;16.50;;;8.30;99.90;;;;;;5026211;28;20191;-45
2022/12/26 08:14:09;;;;;;;25.50;14.67;;;8.30;99.90;;;;;;5032776;28;20589;-44
2022/12/26 08:16:36;;;;;;;21.23;13.53;;;8.30;99.90;;;;;;5025700;28;20946;-46
2022/12/26 08:19:04;;;;;;;23.77;14.63;;;8.40;99.90;;;;;;5029099;28;20203;-42
2022/12/26 08:21:31;;;;;;;22.57;14.53;;;8.40;99.90;;;;;;5007020;28;20215;-57
2022/12/26 08:23:58;;;;;;;26.30;16.03;;;8.30;99.90;;;;;;5024919;28;20230;-44
2022/12/26 08:26:26;;;;;;;27.30;16.60;;;8.40;99.90;;;;;;5026029;28;20596;-55
2022/12/26 08:28:55;;;;;;;27.90;15.87;;;8.40;99.90;;;;;;5024599;28;20880;-42
2022/12/26 08:31:22;;;;;;;29.53;17.40;;;8.40;99.90;;;;;;5032625;28;20666;-57
2022/12/26 08:33:49;;;;;;;26.90;16.87;;;8.50;99.90;;;;;;5022826;28;20277;-43
2022/12/26 08:36:18;;;;;;;26.87;15.43;;;8.50;99.90;;;;;;5022673;28;20753;-54
2022/12/26 08:38:45;;;;;;;27.30;18.07;;;8.50;99.90;;;;;;5032152;28;20218;-44
2022/12/26 08:41:12;;;;;;;27.00;16.47;;;8.50;99.90;;;;;;5033398;28;20286;-44
2022/12/26 08:43:39;;;;;;;28.70;16.97;;;8.50;99.90;;;;;;5028066;28;20208;-44
2022/12/26 08:46:08;;;;;;;26.27;17.00;;;8.50;99.90;;;;;;5034663;28;20310;-45
2022/12/26 08:48:37;;;;;;;28.10;16.77;;;8.50;99.90;;;;;;5024297;28;20211;-49
2022/12/26 08:51:07;;;;;;;27.67;16.97;;;8.60;99.90;;;;;;5043083;28;20533;-43
2022/12/26 08:53:36;;;;;;;29.60;16.97;;;8.60;99.90;;;;;;5021195;28;20686;-51
2022/12/26 08:56:04;;;;;;;26.23;16.37;;;8.60;99.90;;;;;;5025301;28;20254;-46
2022/12/26 08:58:32;;;;;;;27.77;16.60;;;8.60;99.90;;;;;;5026409;28;20556;-56
2022/12/26 09:01:07;;;;;;;27.60;16.97;;;8.60;99.90;;;;;;5038254;28;20686;-42
2022/12/26 09:03:34;;;;;;;27.80;16.97;;;8.60;99.90;;;;;;5020468;28;20215;-51
2022/12/26 09:06:05;;;;;;;24.57;16.30;;;8.60;99.90;;;;;;5032820;28;20192;-49
2022/12/26 09:08:34;;;;;;;24.87;16.83;;;8.60;99.90;;;;;;5017288;28;20577;-55
2022/12/26 09:11:04;;;;;;;27.53;16.10;;;8.60;99.90;;;;;;5030497;28;20191;-42
2022/12/26 09:13:32;;;;;;;27.67;17.57;;;8.60;99.90;;;;;;5024103;28;20227;-53
2022/12/26 09:16:09;;;;;;;25.07;16.63;;;8.70;99.90;;;;;;5032953;28;20195;-45
2022/12/26 09:18:36;;;;;;;26.10;16.60;;;8.70;99.90;;;;;;5027955;28;20207;-46
2022/12/26 09:21:05;;;;;;;27.27;16.83;;;8.70;99.90;;;;;;5034889;28;20219;-45
2022/12/26 09:23:33;;;;;;;28.50;17.27;;;8.70;99.90;;;;;;5014420;28;20223;-54
2022/12/26 09:26:07;;;;;;;25.53;16.83;;;8.70;99.90;;;;;;5033548;28;20605;-44
2022/12/26 09:28:34;;;;;;;27.67;16.73;;;8.70;99.90;;;;;;5018708;28;20207;-52
2022/12/26 09:31:02;;;;;;;26.83;17.57;;;8.70;99.90;;;;;;5031859;28;20176;-45
2022/12/26 09:33:30;;;;;;;27.90;17.83;;;8.70;99.90;;;;;;5030501;28;20326;-46
2022/12/26 09:35:57;;;;;;;29.23;16.97;;;8.70;99.90;;;;;;5031936;28;20199;-46
2022/12/26 09:38:24;;;;;;;26.03;16.70;;;8.70;99.90;;;;;;5026155;28;20207;-48
2022/12/26 09:41:04;;;;;;;27.40;17.80;;;8.70;99.90;;;;;;5031086;28;20677;-56
2022/12/26 09:43:48;;;;;;;25.40;17.27;;;8.70;99.90;;;;;;5036420;28;20223;-45
2022/12/26 09:46:24;;;;;;;28.07;17.53;;;8.70;99.90;;;;;;5038803;28;20824;-49
2022/12/26 09:48:57;;;;;;;27.63;16.53;;;8.80;99.90;;;;;;5030119;28;20673;-55
2022/12/26 09:51:50;;;;;;;32.80;18.57;;;8.70;99.90;;;;;;5027462;28;20217;-57
2022/12/26 09:54:21;;;;;;;29.97;18.67;;;8.70;99.90;;;;;;5018660;28;20231;-45
2022/12/26 09:56:49;;;;;;;28.63;17.40;;;8.80;99.90;;;;;;5030508;28;20199;-58
2022/12/26 09:59:23;;;;;;;30.37;17.93;;;8.80;99.90;;;;;;5026899;28;20207;-43
2022/12/26 10:01:51;;;;;;;31.63;17.93;;;8.80;99.90;;;;;;5033009;28;20211;-55
2022/12/26 10:04:23;;;;;;;34.03;19.00;;;8.90;99.90;;;;;;5028511;28;20743;-42
2022/12/26 10:06:58;;;;;;;29.13;17.03;;;8.80;99.90;;;;;;5028132;28;20680;-57
2022/12/26 10:09:56;;;;;;;24.00;15.87;;;8.80;99.90;;;;;;5023943;28;20298;-46
2022/12/26 10:12:36;;;;;;;28.37;16.80;;;8.80;99.90;;;;;;5031796;28;20721;-47
2022/12/26 10:15:18;;;;;;;25.07;15.93;;;8.90;99.90;;;;;;5031731;28;20465;-50
2022/12/26 10:17:52;;;;;;;25.27;16.13;;;8.90;99.90;;;;;;5048803;28;20202;-54
2022/12/26 10:20:27;;;;;;;21.50;15.03;;;8.90;99.90;;;;;;5027823;28;20701;-51
2022/12/26 10:23:27;;;;;;;20.87;15.10;;;8.90;99.90;;;;;;5027454;28;20215;-56
2022/12/26 10:25:59;;;;;;;24.43;15.30;;;8.90;99.90;;;;;;5004257;28;20215;-56
2022/12/26 10:28:31;;;;;;;22.97;13.77;;;8.90;99.90;;;;;;5040538;28;20246;-44
2022/12/26 10:31:04;;;;;;;23.73;12.93;;;9.00;99.90;;;;;;5029108;28;20191;-42
2022/12/26 10:33:39;;;;;;;19.43;13.27;;;9.00;99.90;;;;;;5034418;28;20211;-42
2022/12/26 10:36:35;;;;;;;21.03;13.47;;;8.90;99.90;;;;;;5035056;28;20222;-44
2022/12/26 10:39:05;;;;;;;21.30;13.10;;;8.90;99.90;;;;;;5011977;28;22169;-46
2022/12/26 10:41:38;;;;;;;22.90;13.47;;;8.90;99.90;;;;;;5029929;28;20215;-42
2022/12/26 10:44:05;;;;;;;20.60;13.90;;;9.00;99.90;;;;;;5025011;28;20220;-45
2022/12/26 10:46:56;;;;;;;21.53;13.40;;;9.00;99.90;;;;;;5028268;28;20198;-55
2022/12/26 10:49:26;;;;;;;18.37;13.03;;;9.00;99.90;;;;;;5032709;28;20569;-55
2022/12/26 10:51:56;;;;;;;18.53;12.33;;;9.00;99.90;;;;;;5028003;28;20203;-47
2022/12/26 10:54:23;;;;;;;17.63;12.77;;;9.10;99.90;;;;;;5024956;28;20227;-56
2022/12/26 10:56:51;;;;;;;21.20;12.93;;;9.10;99.90;;;;;;5025323;28;20199;-42
2022/12/26 10:59:22;;;;;;;19.07;13.23;;;9.20;99.90;;;;;;5030025;28;20206;-55
2022/12/26 11:01:50;;;;;;;17.17;12.33;;;9.30;99.90;;;;;;5034579;28;20211;-54
2022/12/26 11:04:22;;;;;;;20.40;11.83;;;9.20;99.90;;;;;;5032216;28;20227;-46
2022/12/26 11:06:51;;;;;;;18.20;12.43;;;9.30;99.90;;;;;;5030287;28;20290;-43
2022/12/26 11:09:35;;;;;;;17.80;12.27;;;9.30;99.90;;;;;;5034621;28;20836;-55
2022/12/26 11:12:02;;;;;;;19.13;12.03;;;9.30;99.90;;;;;;5014690;28;20258;-45
2022/12/26 11:14:33;;;;;;;19.80;11.80;;;9.30;99.90;;;;;;5022092;28;20219;-56
2022/12/26 11:17:04;;;;;;;18.10;12.13;;;9.30;99.90;;;;;;5034483;28;20207;-47
2022/12/26 11:19:33;;;;;;;17.37;12.00;;;9.30;99.90;;;;;;5033203;28;20199;-56
2022/12/26 11:22:23;;;;;;;17.03;11.10;;;9.30;99.90;;;;;;5029170;28;20289;-44
2022/12/26 11:25:13;;;;;;;20.17;11.73;;;9.30;99.90;;;;;;5017857;28;20240;-46
2022/12/26 11:27:42;;;;;;;16.93;11.93;;;9.30;99.90;;;;;;5013449;28;20207;-45
2022/12/26 11:30:20;;;;;;;16.83;11.37;;;9.20;99.90;;;;;;5030855;28;20278;-49
2022/12/26 11:33:03;;;;;;;14.10;11.03;;;9.30;99.90;;;;;;5028958;28;20189;-45
2022/12/26 11:35:35;;;;;;;17.87;11.53;;;9.20;99.90;;;;;;5018894;28;20224;-54
2022/12/26 11:38:04;;;;;;;14.70;10.50;;;9.20;99.90;;;;;;5036449;28;20234;-45
2022/12/26 11:40:35;;;;;;;18.00;10.43;;;9.30;99.90;;;;;;5029083;28;20218;-52
2022/12/26 11:43:05;;;;;;;17.27;10.40;;;9.20;99.90;;;;;;5014553;28;20281;-43
2022/12/26 11:45:36;;;;;;;14.57;10.57;;;9.30;99.90;;;;;;5027755;28;20234;-46
2022/12/26 11:48:18;;;;;;;16.67;10.83;;;9.20;99.90;;;;;;5033535;28;20924;-47
2022/12/26 11:50:46;;;;;;;19.43;10.47;;;9.30;99.90;;;;;;5034210;28;20630;-58
2022/12/26 11:53:17;;;;;;;15.43;11.37;;;9.30;99.90;;;;;;5024400;28;20847;-44
2022/12/26 11:55:44;;;;;;;17.33;10.40;;;9.30;99.90;;;;;;5026069;28;20576;-54
2022/12/26 11:58:18;;;;;;;16.63;10.60;;;9.30;99.90;;;;;;5017255;28;20199;-43
2022/12/26 12:01:05;;;;;;;13.07;9.43;;;9.30;99.90;;;;;;5032909;28;20207;-57
2022/12/26 12:03:36;;;;;;;15.70;10.63;;;9.30;99.90;;;;;;5030959;28;20306;-44
2022/12/26 12:06:13;;;;;;;14.60;10.07;;;9.30;99.90;;;;;;5030454;28;23082;-47
2022/12/26 12:08:46;;;;;;;16.83;9.93;;;9.30;99.90;;;;;;5034282;28;20233;-55
2022/12/26 12:11:25;;;;;;;14.07;9.27;;;9.30;99.90;;;;;;5029232;28;21826;-44
2022/12/26 12:14:08;;;;;;;18.17;9.27;;;9.30;99.90;;;;;;5016725;28;20752;-55
2022/12/26 12:16:52;;;;;;;12.83;9.57;;;9.30;99.90;;;;;;5040899;28;20199;-47
2022/12/26 12:19:42;;;;;;;13.67;8.93;;;9.30;99.90;;;;;;5033762;28;20804;-52
2022/12/26 12:22:29;;;;;;;12.90;9.13;;;9.30;99.90;;;;;;5032039;28;20298;-45
2022/12/26 12:25:13;;;;;;;12.23;7.93;;;9.30;99.90;;;;;;5032594;28;20216;-57
2022/12/26 12:27:46;;;;;;;12.97;9.03;;;9.30;99.90;;;;;;5034546;28;20203;-58
2022/12/26 12:30:18;;;;;;;12.33;9.00;;;9.30;99.90;;;;;;5029053;28;20191;-45
2022/12/26 12:32:59;;;;;;;11.27;8.70;;;9.30;99.90;;;;;;5036976;28;20682;-55
2022/12/26 12:35:48;;;;;;;10.70;7.83;;;9.30;99.90;;;;;;5032970;28;20234;-48
2022/12/26 12:38:36;;;;;;;11.73;8.37;;;9.30;99.90;;;;;;5029408;28;20208;-48
2022/12/26 12:41:40;;;;;;;13.20;8.47;;;9.30;99.90;;;;;;5035187;28;20198;-43
2022/12/26 12:44:15;;;;;;;13.63;8.40;;;9.30;99.90;;;;;;5012254;28;20451;-43
2022/12/26 12:46:54;;;;;;;11.53;8.30;;;9.30;99.90;;;;;;5036549;28;20214;-52
2022/12/26 12:49:45;;;;;;;11.17;8.40;;;9.30;99.90;;;;;;5036441;28;20204;-49
2022/12/26 12:52:22;;;;;;;11.43;7.83;;;9.30;99.90;;;;;;5022843;28;20511;-44
2022/12/26 12:55:17;;;;;;;10.27;7.50;;;9.30;99.90;;;;;;5029968;28;20222;-58
2022/12/26 12:57:50;;;;;;;8.50;7.17;;;9.40;99.90;;;;;;5021823;28;20222;-45
2022/12/26 13:00:20;;;;;;;8.07;6.87;;;9.40;99.90;;;;;;5017120;28;20211;-56
2022/12/26 13:02:53;;;;;;;8.03;6.47;;;9.40;99.90;;;;;;5023627;28;20226;-43
2022/12/26 13:05:28;;;;;;;8.37;5.60;;;9.50;99.90;;;;;;5023034;28;20232;-48
2022/12/26 13:08:01;;;;;;;6.27;5.20;;;9.50;99.90;;;;;;5022599;28;20214;-43
2022/12/26 13:10:31;;;;;;;5.53;4.37;;;9.50;99.90;;;;;;5027253;28;20204;-55
2022/12/26 13:13:11;;;;;;;5.30;4.80;;;9.50;99.90;;;;;;5028549;28;20417;-44
2022/12/26 13:15:43;;;;;;;6.27;3.90;;;9.60;99.90;;;;;;5023296;28;20297;-56
2022/12/26 13:18:13;;;;;;;6.73;3.83;;;9.60;99.90;;;;;;5032533;28;20252;-47
2022/12/26 13:20:44;;;;;;;4.70;3.67;;;9.60;99.90;;;;;;5031238;28;20211;-55
2022/12/26 13:26:14;;;;;;;4.07;2.67;;;9.60;99.90;;;;;;5035790;28;20211;-43
2022/12/26 13:28:52;;;;;;;3.67;2.20;;;9.60;99.90;;;;;;5022837;28;20210;-58
2022/12/26 13:31:19;;;;;;;3.10;1.63;;;9.60;99.90;;;;;;5016501;28;20222;-48
2022/12/26 13:33:46;;;;;;;2.60;1.40;;;9.60;99.90;;;;;;5025065;28;20274;-47
2022/12/26 13:36:34;;;;;;;5.50;1.20;;;9.50;99.90;;;;;;5031489;28;20231;-46
2022/12/26 13:39:32;;;;;;;2.80;0.83;;;9.40;99.90;;;;;;5025414;28;20759;-43
2022/12/26 13:44:51;;;;;;;3.90;0.90;;;9.30;99.90;;;;;;5021966;28;20246;-48
2022/12/26 13:47:32;;;;;;;3.07;0.70;;;9.20;99.90;;;;;;5022348;28;20215;-42
2022/12/26 13:50:38;;;;;;;2.27;0.80;;;9.00;99.90;;;;;;5029319;28;20779;-45
2022/12/26 13:53:05;;;;;;;1.83;0.73;;;8.70;99.90;;;;;;5036793;28;20192;-44
2022/12/26 13:55:43;;;;;;;3.70;0.60;;;8.50;99.90;;;;;;5033134;28;20273;-55
2022/12/26 13:58:26;;;;;;;4.43;0.70;;;8.30;99.90;;;;;;5033635;28;20196;-46
2022/12/26 14:00:59;;;;;;;3.60;0.90;;;8.20;99.90;;;;;;5017873;28;20253;-43
2022/12/26 14:03:47;;;;;;;4.13;1.30;;;8.10;99.90;;;;;;5030060;28;20227;-56
2022/12/26 14:06:36;;;;;;;1.87;0.83;;;8.00;99.90;;;;;;5025542;28;20204;-46
2022/12/26 14:09:22;;;;;;;4.53;1.13;;;7.90;99.90;;;;;;5031443;28;20196;-50
2022/12/26 14:12:15;;;;;;;5.13;0.70;;;7.90;99.90;;;;;;5022088;28;20210;-48
2022/12/26 14:14:54;;;;;;;5.50;0.97;;;7.80;99.90;;;;;;5022909;28;20251;-56
2022/12/26 14:17:31;;;;;;;6.63;1.30;;;7.80;99.90;;;;;;5021536;28;20569;-43
2022/12/26 14:20:08;;;;;;;6.20;1.30;;;7.70;99.90;;;;;;5027816;28;20195;-45
2022/12/26 14:22:45;;;;;;;3.60;0.90;;;7.70;99.90;;;;;;5037169;28;20314;-55
2022/12/26 14:25:20;;;;;;;4.03;1.13;;;7.60;99.90;;;;;;5030890;28;20270;-43
2022/12/26 14:27:55;;;;;;;4.23;0.73;;;7.60;99.90;;;;;;5032578;28;20217;-42
2022/12/26 14:30:28;;;;;;;6.53;0.73;;;7.50;99.90;;;;;;5031393;28;21015;-46
2022/12/26 14:33:17;;;;;;;4.10;0.87;;;7.40;99.90;;;;;;5015942;28;20198;-46
2022/12/26 14:35:56;;;;;;;6.67;1.20;;;7.30;99.90;;;;;;5018805;28;20239;-49
2022/12/26 14:38:33;;;;;;;7.40;1.60;;;7.20;99.90;;;;;;5038269;28;20203;-48
2022/12/26 14:41:04;;;;;;;2.53;1.50;;;7.20;99.90;;;;;;5028391;28;20475;-42
2022/12/26 14:43:38;;;;;;;7.53;1.10;;;7.20;99.90;;;;;;5032525;28;20226;-56
2022/12/26 14:46:37;;;;;;;3.93;1.10;;;7.20;99.90;;;;;;5032060;28;20202;-43
2022/12/26 14:49:18;;;;;;;2.77;1.20;;;7.10;99.90;;;;;;5009353;28;20238;-47
2022/12/26 14:52:39;;;;;;;5.13;0.90;;;7.10;99.90;;;;;;5032469;28;20218;-44
2022/12/26 14:55:35;;;;;;;2.50;0.87;;;7.10;99.90;;;;;;5035552;28;20222;-43
2022/12/26 14:58:35;;;;;;;6.53;1.03;;;7.00;99.90;;;;;;5025966;28;20212;-48
2022/12/26 15:01:57;;;;;;;2.63;1.13;;;6.90;99.90;;;;;;5032778;28;20207;-46
2022/12/26 15:04:51;;;;;;;7.53;1.30;;;6.90;99.90;;;;;;4967595;28;20236;-52
2022/12/26 15:07:53;;;;;;;4.03;0.93;;;6.80;99.90;;;;;;5033260;28;20212;-52
2022/12/26 15:10:52;;;;;;;4.93;1.27;;;6.80;99.90;;;;;;5035826;28;20195;-46
2022/12/26 15:13:56;;;;;;;7.57;1.37;;;6.80;99.90;;;;;;5027424;28;20290;-45
2022/12/26 15:16:40;;;;;;;5.10;1.03;;;6.80;99.90;;;;;;5027424;28;20818;-51
2022/12/26 15:19:39;;;;;;;9.17;1.20;;;6.80;99.90;;;;;;5006190;28;20838;-44
2022/12/26 15:22:40;;;;;;;13.30;1.77;;;6.70;99.90;;;;;;5012742;28;20227;-43
2022/12/26 15:25:55;;;;;;;8.77;1.37;;;6.80;99.90;;;;;;5025999;28;20219;-45
2022/12/26 15:28:58;;;;;;;11.53;1.60;;;6.70;99.90;;;;;;5032935;28;22295;-44